createdAt,value
2019-03-17T00:00:36.223Z,81.50
2019-03-17T00:01:36.150Z,81.74
2019-03-17T00:02:36.232Z,81.82
2019-03-17T00:03:36.228Z,81.82
2019-03-17T00:04:36.120Z,81.98
2019-03-17T00:05:36.237Z,82.03
2019-03-17T00:06:36.181Z,82.21
2019-03-17T00:07:36.249Z,82.03
2019-03-17T00:08:36.241Z,82.08
2019-03-17T00:09:36.168Z,82.06
2019-03-17T00:10:36.246Z,82.08
2019-03-17T00:11:36.169Z,82.32
2019-03-17T00:12:36.243Z,82.08
2019-03-17T00:13:36.251Z,81.90
2019-03-17T00:14:36.239Z,81.71
2019-03-17T00:15:36.174Z,81.63
2019-03-17T00:16:36.245Z,81.82
2019-03-17T00:17:36.251Z,82.00
2019-03-17T00:18:36.254Z,82.16
2019-03-17T00:19:36.185Z,82.32
2019-03-17T00:20:36.174Z,82.37
2019-03-17T00:21:36.262Z,82.45
2019-03-17T00:22:36.174Z,82.48
2019-03-17T00:23:36.195Z,82.56
2019-03-17T00:24:36.168Z,82.48
2019-03-17T00:25:36.239Z,82.59
2019-03-17T00:26:36.197Z,82.40
2019-03-17T00:27:36.239Z,82.27
2019-03-17T00:28:36.177Z,82.45
2019-03-17T00:29:36.180Z,82.35
2019-03-17T00:30:36.175Z,82.24
2019-03-17T00:31:36.245Z,82.19
2019-03-17T00:32:36.179Z,82.35
2019-03-17T00:33:36.590Z,82.37
2019-03-17T00:34:44.045Z,82.48
2019-03-17T00:35:36.197Z,82.29
2019-03-17T00:36:36.170Z,82.00
2019-03-17T00:37:36.224Z,81.87
2019-03-17T00:38:36.113Z,82.03
2019-03-17T00:39:36.146Z,82.08
2019-03-17T00:40:36.122Z,82.00
2019-03-17T00:41:36.108Z,82.00
2019-03-17T00:42:36.125Z,82.16
2019-03-17T00:43:36.185Z,82.29
2019-03-17T00:44:36.213Z,82.29
2019-03-17T00:45:36.206Z,82.35
2019-03-17T00:46:36.165Z,82.24
2019-03-17T00:47:36.244Z,82.08
2019-03-17T00:48:36.247Z,82.03
2019-03-17T00:49:36.155Z,82.08
2019-03-17T00:50:36.168Z,82.11
2019-03-17T00:51:36.249Z,82.21
2019-03-17T00:52:36.211Z,82.14
2019-03-17T00:53:36.244Z,82.16
2019-03-17T00:54:36.191Z,82.08
2019-03-17T00:55:36.264Z,81.74
2019-03-17T00:56:36.198Z,81.68
2019-03-17T00:57:36.185Z,81.68
2019-03-17T00:58:36.265Z,81.68
2019-03-17T00:59:36.199Z,81.68
2019-03-17T01:00:36.264Z,81.68
2019-03-17T01:01:36.208Z,81.68
2019-03-17T01:02:36.277Z,81.68
2019-03-17T01:03:36.197Z,81.68
2019-03-17T01:04:36.203Z,81.68
2019-03-17T01:05:36.197Z,81.68
2019-03-17T01:06:36.268Z,81.68
2019-03-17T01:07:36.215Z,81.68
2019-03-17T01:08:36.204Z,81.68
2019-03-17T01:09:36.211Z,81.68
2019-03-17T01:10:36.271Z,81.68
2019-03-17T01:11:36.204Z,81.68
2019-03-17T01:12:36.277Z,81.68
2019-03-17T01:13:36.208Z,81.68
2019-03-17T01:14:36.260Z,81.68
2019-03-17T01:15:36.263Z,81.68
2019-03-17T01:16:36.181Z,81.68
2019-03-17T01:17:36.143Z,81.68
2019-03-17T01:18:36.224Z,81.68
2019-03-17T01:19:36.219Z,81.68
2019-03-17T01:20:36.181Z,81.68
2019-03-17T01:21:36.277Z,81.68
2019-03-17T01:22:36.244Z,81.68
2019-03-17T01:23:36.272Z,81.68
2019-03-17T01:24:36.222Z,81.68
2019-03-17T01:25:36.292Z,81.68
2019-03-17T01:26:36.241Z,81.68
2019-03-17T01:27:36.222Z,81.68
2019-03-17T01:28:36.240Z,81.68
2019-03-17T01:29:36.227Z,81.68
2019-03-17T01:30:36.295Z,81.68
2019-03-17T01:31:36.294Z,81.68
2019-03-17T01:32:36.237Z,81.68
2019-03-17T01:33:36.307Z,81.68
2019-03-17T01:34:36.317Z,81.68
2019-03-17T01:35:36.311Z,81.68
2019-03-17T01:36:36.300Z,81.68
2019-03-17T01:37:36.228Z,81.68
2019-03-17T01:38:36.233Z,81.68
2019-03-17T01:39:36.309Z,81.68
2019-03-17T01:40:36.303Z,81.68
2019-03-17T01:41:36.304Z,81.68
2019-03-17T01:42:36.310Z,81.68
2019-03-17T01:43:36.243Z,81.68
2019-03-17T01:44:36.255Z,81.68
2019-03-17T01:45:36.300Z,81.68
2019-03-17T01:46:36.235Z,81.68
2019-03-17T01:47:36.311Z,81.68
2019-03-17T01:48:36.301Z,81.68
2019-03-17T01:49:36.312Z,81.68
2019-03-17T01:50:36.323Z,81.68
2019-03-17T01:51:36.306Z,81.68
2019-03-17T01:52:36.239Z,81.68
2019-03-17T01:53:36.239Z,81.68
2019-03-17T01:54:36.308Z,81.68
2019-03-17T01:55:36.316Z,81.68
2019-03-17T01:56:36.320Z,81.68
2019-03-17T01:57:36.241Z,81.68
2019-03-17T01:58:36.243Z,81.68
2019-03-17T01:59:36.319Z,81.68
2019-03-17T02:00:36.327Z,81.68
2019-03-17T02:01:36.326Z,81.68
2019-03-17T02:02:36.250Z,81.68
2019-03-17T02:03:36.250Z,81.68
2019-03-17T02:04:36.318Z,81.68
2019-03-17T02:05:36.325Z,81.68
2019-03-17T02:06:36.265Z,81.68
2019-03-17T02:07:36.251Z,81.68
2019-03-17T02:08:36.324Z,81.68
2019-03-17T02:09:36.317Z,81.68
2019-03-17T02:10:36.278Z,81.68
2019-03-17T02:11:36.268Z,81.68
2019-03-17T02:12:36.334Z,81.68
2019-03-17T02:13:36.425Z,81.68
2019-03-17T02:14:36.266Z,81.68
2019-03-17T02:15:36.266Z,81.68
2019-03-17T02:16:36.268Z,81.68
2019-03-17T02:17:36.336Z,81.68
2019-03-17T02:18:36.329Z,81.68
2019-03-17T02:19:36.261Z,81.68
2019-03-17T02:20:36.332Z,81.68
2019-03-17T02:21:36.343Z,81.68
2019-03-17T02:22:36.277Z,81.68
2019-03-17T02:23:36.340Z,81.68
2019-03-17T02:24:36.262Z,81.68
2019-03-17T02:25:36.264Z,81.68
2019-03-17T02:26:36.338Z,81.68
2019-03-17T02:27:36.339Z,81.68
2019-03-17T02:28:36.348Z,81.68
2019-03-17T02:29:36.264Z,81.68
2019-03-17T02:30:36.294Z,81.68
2019-03-17T02:31:36.276Z,81.68
2019-03-17T02:32:36.231Z,81.68
2019-03-17T02:33:36.345Z,81.68
2019-03-17T02:34:36.351Z,81.68
2019-03-17T02:35:39.461Z,81.68
2019-03-17T02:36:36.272Z,81.68
2019-03-17T02:37:36.275Z,81.68
2019-03-17T02:38:36.343Z,81.68
2019-03-17T02:39:36.358Z,81.68
2019-03-17T02:40:36.350Z,81.68
2019-03-17T02:41:36.292Z,81.68
2019-03-17T02:42:36.279Z,81.68
2019-03-17T02:43:36.351Z,81.68
2019-03-17T02:44:36.343Z,81.68
2019-03-17T02:45:36.352Z,81.68
2019-03-17T02:46:36.313Z,81.68
2019-03-17T02:47:36.299Z,81.68
2019-03-17T02:48:36.384Z,81.68
2019-03-17T02:49:36.430Z,81.68
2019-03-17T02:50:36.291Z,81.68
2019-03-17T02:51:36.356Z,81.68
2019-03-17T02:52:36.344Z,81.68
2019-03-17T02:53:36.483Z,81.68
2019-03-17T02:54:36.361Z,81.68
2019-03-17T02:55:36.269Z,81.68
2019-03-17T02:56:36.308Z,81.68
2019-03-17T02:57:36.338Z,81.68
2019-03-17T02:58:36.340Z,81.68
2019-03-17T02:59:36.246Z,81.68
2019-03-17T03:00:36.278Z,81.68
2019-03-17T03:01:36.273Z,81.68
2019-03-17T03:02:36.299Z,81.68
2019-03-17T03:03:36.342Z,81.68
2019-03-17T03:04:36.355Z,81.68
2019-03-17T03:05:36.311Z,81.68
2019-03-17T03:06:36.301Z,81.68
2019-03-17T03:07:36.297Z,81.68
2019-03-17T03:08:36.389Z,81.68
2019-03-17T03:09:36.391Z,81.68
2019-03-17T03:10:36.380Z,81.68
2019-03-17T03:11:36.386Z,81.68
2019-03-17T03:12:36.378Z,81.68
2019-03-17T03:13:36.373Z,81.68
2019-03-17T03:14:36.313Z,81.68
2019-03-17T03:15:36.361Z,81.68
2019-03-17T03:16:36.364Z,81.68
2019-03-17T03:17:36.296Z,81.68
2019-03-17T03:18:36.363Z,81.68
2019-03-17T03:19:36.366Z,81.68
2019-03-17T03:20:36.368Z,81.68
2019-03-17T03:21:36.299Z,81.68
2019-03-17T03:22:36.373Z,81.68
2019-03-17T03:23:36.294Z,81.68
2019-03-17T03:24:36.365Z,81.68
2019-03-17T03:25:36.306Z,81.68
2019-03-17T03:26:36.383Z,81.68
2019-03-17T03:27:36.382Z,81.68
2019-03-17T03:28:36.320Z,81.68
2019-03-17T03:29:36.379Z,81.68
2019-03-17T03:30:36.314Z,81.68
2019-03-17T03:31:36.387Z,81.68
2019-03-17T03:32:36.386Z,81.68
2019-03-17T03:33:36.398Z,81.68
2019-03-17T03:34:36.328Z,81.68
2019-03-17T03:35:36.378Z,81.68
2019-03-17T03:36:36.316Z,81.68
2019-03-17T03:37:36.377Z,81.68
2019-03-17T03:38:36.387Z,81.68
2019-03-17T03:39:36.392Z,81.68
2019-03-17T03:40:36.380Z,81.68
2019-03-17T03:41:36.390Z,81.68
2019-03-17T03:42:36.310Z,81.68
2019-03-17T03:43:36.307Z,81.68
2019-03-17T03:44:36.381Z,81.68
2019-03-17T03:45:36.385Z,81.68
2019-03-17T03:46:36.385Z,81.68
2019-03-17T03:47:36.313Z,81.68
2019-03-17T03:48:36.383Z,81.68
2019-03-17T03:49:36.386Z,81.68
2019-03-17T03:50:36.346Z,81.68
2019-03-17T03:51:36.387Z,81.68
2019-03-17T03:52:36.431Z,81.68
2019-03-17T03:53:36.386Z,81.68
2019-03-17T03:54:36.391Z,81.68
2019-03-17T03:55:36.337Z,81.68
2019-03-17T03:56:36.328Z,81.68
2019-03-17T03:57:36.412Z,81.68
2019-03-17T03:58:36.408Z,81.68
2019-03-17T03:59:36.408Z,81.68
2019-03-17T04:00:36.414Z,81.68
2019-03-17T04:01:36.372Z,81.68
2019-03-17T04:02:36.404Z,81.68
2019-03-17T04:03:36.407Z,81.68
2019-03-17T04:04:36.333Z,81.68
2019-03-17T04:05:36.327Z,81.68
2019-03-17T04:06:36.389Z,81.68
2019-03-17T04:07:36.373Z,81.68
2019-03-17T04:08:36.297Z,81.68
2019-03-17T04:09:36.343Z,81.68
2019-03-17T04:10:36.286Z,81.68
2019-03-17T04:11:36.357Z,81.68
2019-03-17T04:12:36.350Z,81.68
2019-03-17T04:13:36.288Z,81.68
2019-03-17T04:14:36.323Z,81.68
2019-03-17T04:15:36.341Z,81.68
2019-03-17T04:16:36.357Z,81.68
2019-03-17T04:17:36.427Z,81.68
2019-03-17T04:18:36.417Z,81.68
2019-03-17T04:19:36.343Z,81.68
2019-03-17T04:20:36.442Z,81.68
2019-03-17T04:21:36.348Z,81.68
2019-03-17T04:22:36.386Z,81.68
2019-03-17T04:23:36.353Z,81.68
2019-03-17T04:24:36.426Z,81.68
2019-03-17T04:25:36.411Z,81.68
2019-03-17T04:26:36.359Z,81.68
2019-03-17T04:27:36.317Z,81.68
2019-03-17T04:28:36.317Z,81.68
2019-03-17T04:29:36.366Z,81.68
2019-03-17T04:30:36.310Z,81.68
2019-03-17T04:31:36.396Z,81.68
2019-03-17T04:32:36.409Z,81.68
2019-03-17T04:33:36.412Z,81.68
2019-03-17T04:34:36.406Z,81.68
2019-03-17T04:35:36.429Z,81.68
2019-03-17T04:36:40.410Z,81.68
2019-03-17T04:37:36.392Z,81.68
2019-03-17T04:38:36.382Z,81.68
2019-03-17T04:39:36.373Z,81.68
2019-03-17T04:40:36.434Z,81.68
2019-03-17T04:41:36.362Z,81.68
2019-03-17T04:42:36.500Z,81.68
2019-03-17T04:43:36.439Z,81.68
2019-03-17T04:44:36.443Z,81.68
2019-03-17T04:45:36.423Z,81.68
2019-03-17T04:46:36.360Z,81.68
2019-03-17T04:47:36.355Z,81.68
2019-03-17T04:48:36.488Z,81.68
2019-03-17T04:49:36.459Z,81.68
2019-03-17T04:50:36.358Z,81.68
2019-03-17T04:51:36.427Z,81.68
2019-03-17T04:52:36.437Z,81.68
2019-03-17T04:53:36.428Z,81.68
2019-03-17T04:54:36.373Z,81.68
2019-03-17T04:55:36.370Z,81.68
2019-03-17T04:56:36.372Z,81.68
2019-03-17T04:57:36.369Z,81.68
2019-03-17T04:58:36.445Z,81.68
2019-03-17T04:59:36.383Z,81.68
2019-03-17T05:00:36.391Z,81.68
2019-03-17T05:01:36.379Z,81.68
2019-03-17T05:02:36.447Z,81.68
2019-03-17T05:03:36.374Z,81.68
2019-03-17T05:04:36.447Z,81.68
2019-03-17T05:05:36.392Z,81.68
2019-03-17T05:06:36.379Z,81.68
2019-03-17T05:07:36.446Z,81.68
2019-03-17T05:08:36.378Z,81.68
2019-03-17T05:09:36.381Z,81.68
2019-03-17T05:10:36.456Z,81.68
2019-03-17T05:11:36.461Z,81.68
2019-03-17T05:12:36.451Z,81.68
2019-03-17T05:13:36.450Z,81.68
2019-03-17T05:14:36.389Z,81.68
2019-03-17T05:15:36.444Z,81.68
2019-03-17T05:16:36.380Z,81.68
2019-03-17T05:17:36.446Z,81.68
2019-03-17T05:18:36.378Z,81.68
2019-03-17T05:19:36.450Z,81.68
2019-03-17T05:20:36.382Z,81.68
2019-03-17T05:21:36.447Z,81.68
2019-03-17T05:22:36.454Z,81.68
2019-03-17T05:23:36.446Z,81.68
2019-03-17T05:24:36.376Z,81.68
2019-03-17T05:25:36.464Z,81.68
2019-03-17T05:26:36.407Z,81.68
2019-03-17T05:27:36.400Z,81.68
2019-03-17T05:28:36.504Z,81.68
2019-03-17T05:29:36.462Z,81.68
2019-03-17T05:30:36.466Z,81.68
2019-03-17T05:31:36.420Z,81.68
2019-03-17T05:32:36.458Z,81.68
2019-03-17T05:33:36.466Z,81.68
2019-03-17T05:34:36.396Z,81.68
2019-03-17T05:35:36.467Z,81.68
2019-03-17T05:36:36.474Z,81.68
2019-03-17T05:37:36.479Z,81.68
2019-03-17T05:38:36.410Z,81.68
2019-03-17T05:39:36.404Z,81.68
2019-03-17T05:40:36.403Z,81.68
2019-03-17T05:41:36.413Z,81.68
2019-03-17T05:42:36.474Z,81.68
2019-03-17T05:43:36.426Z,81.68
2019-03-17T05:44:36.413Z,81.68
2019-03-17T05:45:36.408Z,81.68
2019-03-17T05:46:36.411Z,81.68
2019-03-17T05:47:36.408Z,81.68
2019-03-17T05:48:36.422Z,81.68
2019-03-17T05:49:36.487Z,81.68
2019-03-17T05:50:36.486Z,81.68
2019-03-17T05:51:36.412Z,81.68
2019-03-17T05:52:36.413Z,81.68
2019-03-17T05:53:36.477Z,81.68
2019-03-17T05:54:36.430Z,81.68
2019-03-17T05:55:36.471Z,81.68
2019-03-17T05:56:36.355Z,81.68
2019-03-17T05:57:36.380Z,81.68
2019-03-17T05:58:36.445Z,81.68
2019-03-17T05:59:36.407Z,81.68
2019-03-17T06:00:36.413Z,81.68
2019-03-17T06:01:36.404Z,81.68
2019-03-17T06:02:36.473Z,81.68
2019-03-17T06:03:36.392Z,81.68
2019-03-17T06:04:36.480Z,81.68
2019-03-17T06:05:36.460Z,81.68
2019-03-17T06:06:36.436Z,81.68
2019-03-17T06:07:36.440Z,81.68
2019-03-17T06:08:36.438Z,81.68
2019-03-17T06:09:36.418Z,81.68
2019-03-17T06:10:36.373Z,81.68
2019-03-17T06:11:36.396Z,81.68
2019-03-17T06:12:36.447Z,81.68
2019-03-17T06:13:36.469Z,81.68
2019-03-17T06:14:36.381Z,81.68
2019-03-17T06:15:36.421Z,81.68
2019-03-17T06:16:36.424Z,81.68
2019-03-17T06:17:36.354Z,81.68
2019-03-17T06:18:36.346Z,81.68
2019-03-17T06:19:36.401Z,81.68
2019-03-17T06:20:36.352Z,81.68
2019-03-17T06:21:36.465Z,81.68
2019-03-17T06:22:36.352Z,81.68
2019-03-17T06:23:36.449Z,81.68
2019-03-17T06:24:36.395Z,81.68
2019-03-17T06:25:36.501Z,81.68
2019-03-17T06:26:36.452Z,81.68
2019-03-17T06:27:36.509Z,81.68
2019-03-17T06:28:36.501Z,81.68
2019-03-17T06:29:36.443Z,81.68
2019-03-17T06:30:36.571Z,81.68
2019-03-17T06:31:36.433Z,81.68
2019-03-17T06:32:36.512Z,81.68
2019-03-17T06:33:36.438Z,81.68
2019-03-17T06:34:36.442Z,81.68
2019-03-17T06:35:36.518Z,81.68
2019-03-17T06:36:36.438Z,81.68
2019-03-17T06:37:36.514Z,81.68
2019-03-17T06:38:36.445Z,81.68
2019-03-17T06:39:36.440Z,81.68
2019-03-17T06:40:36.512Z,81.68
2019-03-17T06:41:36.450Z,81.68
2019-03-17T06:42:36.514Z,81.68
2019-03-17T06:43:36.447Z,81.68
2019-03-17T06:44:36.514Z,81.68
2019-03-17T06:45:36.448Z,81.68
2019-03-17T06:46:36.516Z,81.68
2019-03-17T06:47:36.452Z,81.68
2019-03-17T06:48:36.528Z,81.68
2019-03-17T06:49:36.526Z,81.68
2019-03-17T06:50:36.515Z,81.68
2019-03-17T06:51:36.514Z,81.68
2019-03-17T06:52:36.518Z,81.68
2019-03-17T06:53:36.523Z,81.68
2019-03-17T06:54:36.535Z,81.68
2019-03-17T06:55:36.438Z,81.68
2019-03-17T06:56:36.515Z,81.68
2019-03-17T06:57:36.513Z,81.68
2019-03-17T06:58:36.441Z,81.68
2019-03-17T06:59:36.520Z,81.68
2019-03-17T07:00:36.441Z,81.68
2019-03-17T07:01:36.470Z,81.68
2019-03-17T07:02:36.517Z,81.68
2019-03-17T07:03:36.486Z,81.68
2019-03-17T07:04:36.524Z,81.68
2019-03-17T07:05:36.541Z,81.68
2019-03-17T07:06:36.528Z,81.68
2019-03-17T07:07:44.086Z,81.68
2019-03-17T07:08:36.533Z,81.68
2019-03-17T07:09:36.466Z,81.68
2019-03-17T07:10:36.463Z,81.68
2019-03-17T07:11:36.530Z,81.68
2019-03-17T07:12:36.464Z,81.68
2019-03-17T07:13:36.530Z,81.68
2019-03-17T07:14:36.473Z,81.68
2019-03-17T07:15:36.538Z,81.68
2019-03-17T07:16:36.577Z,81.68
2019-03-17T07:17:36.538Z,81.68
2019-03-17T07:18:36.472Z,81.68
2019-03-17T07:19:36.547Z,81.68
2019-03-17T07:20:36.548Z,81.68
2019-03-17T07:21:36.475Z,81.68
2019-03-17T07:22:36.476Z,81.68
2019-03-17T07:23:36.543Z,81.68
2019-03-17T07:24:36.475Z,81.68
2019-03-17T07:25:36.449Z,81.68
2019-03-17T07:26:36.461Z,81.68
2019-03-17T07:27:36.496Z,81.68
2019-03-17T07:28:36.548Z,81.68
2019-03-17T07:29:36.478Z,81.68
2019-03-17T07:30:36.472Z,81.68
2019-03-17T07:31:36.441Z,81.68
2019-03-17T07:32:36.397Z,81.68
2019-03-17T07:33:36.467Z,81.68
2019-03-17T07:34:36.470Z,81.68
2019-03-17T07:35:36.502Z,81.68
2019-03-17T07:36:36.547Z,81.68
2019-03-17T07:37:36.555Z,81.68
2019-03-17T07:38:36.550Z,81.68
2019-03-17T07:39:36.490Z,81.68
2019-03-17T07:40:36.488Z,81.68
2019-03-17T07:41:36.554Z,81.68
2019-03-17T07:42:36.504Z,81.68
2019-03-17T07:43:36.494Z,81.68
2019-03-17T07:44:36.556Z,81.68
2019-03-17T07:45:36.554Z,81.68
2019-03-17T07:46:36.507Z,81.68
2019-03-17T07:47:36.555Z,81.68
2019-03-17T07:48:36.493Z,81.68
2019-03-17T07:49:36.559Z,81.68
2019-03-17T07:50:36.567Z,81.68
2019-03-17T07:51:36.561Z,81.68
2019-03-17T07:52:36.560Z,81.68
2019-03-17T07:53:36.563Z,81.68
2019-03-17T07:54:36.495Z,81.68
2019-03-17T07:55:36.555Z,81.68
2019-03-17T07:56:36.575Z,81.68
2019-03-17T07:57:36.524Z,81.68
2019-03-17T07:58:36.482Z,81.68
2019-03-17T07:59:36.537Z,81.68
2019-03-17T08:00:36.488Z,81.68
2019-03-17T08:01:36.450Z,81.68
2019-03-17T08:02:36.511Z,81.68
2019-03-17T08:03:36.598Z,81.68
2019-03-17T08:04:42.389Z,81.68
2019-03-17T08:05:36.451Z,81.68
2019-03-17T08:06:36.491Z,81.68
2019-03-17T08:07:36.436Z,81.68
2019-03-17T08:08:36.517Z,81.68
2019-03-17T08:09:36.497Z,81.68
2019-03-17T08:10:36.533Z,81.68
2019-03-17T08:11:36.435Z,81.68
2019-03-17T08:12:36.433Z,81.68
2019-03-17T08:13:36.528Z,81.68
2019-03-17T08:14:36.526Z,81.68
2019-03-17T08:15:36.500Z,81.68
2019-03-17T08:16:36.509Z,81.68
2019-03-17T08:17:36.516Z,81.68
2019-03-17T08:18:36.591Z,81.68
2019-03-17T08:19:36.601Z,81.68
2019-03-17T08:20:36.619Z,81.68
2019-03-17T08:21:36.587Z,81.68
2019-03-17T08:22:36.605Z,81.68
2019-03-17T08:23:36.519Z,81.68
2019-03-17T08:24:36.573Z,81.68
2019-03-17T08:25:36.595Z,81.68
2019-03-17T08:26:36.477Z,81.68
2019-03-17T08:27:36.569Z,81.68
2019-03-17T08:28:36.594Z,81.68
2019-03-17T08:29:36.489Z,81.68
2019-03-17T08:30:36.608Z,81.68
2019-03-17T08:31:36.527Z,81.68
2019-03-17T08:32:36.529Z,81.68
2019-03-17T08:33:36.497Z,81.68
2019-03-17T08:34:36.571Z,81.68
2019-03-17T08:35:36.585Z,81.68
2019-03-17T08:36:36.537Z,81.68
2019-03-17T08:37:36.510Z,81.68
2019-03-17T08:38:36.550Z,81.68
2019-03-17T08:39:36.576Z,81.68
2019-03-17T08:40:36.587Z,81.68
2019-03-17T08:41:37.726Z,81.68
2019-03-17T08:42:36.538Z,81.68
2019-03-17T08:43:36.542Z,81.68
2019-03-17T08:44:36.586Z,81.68
2019-03-17T08:45:36.527Z,81.68
2019-03-17T08:46:36.529Z,81.68
2019-03-17T08:47:36.542Z,81.68
2019-03-17T08:48:36.533Z,81.68
2019-03-17T08:49:36.598Z,81.68
2019-03-17T08:50:36.611Z,81.68
2019-03-17T08:51:36.778Z,81.68
2019-03-17T08:52:36.539Z,81.68
2019-03-17T08:53:36.602Z,81.68
2019-03-17T08:54:36.598Z,81.68
2019-03-17T08:55:36.615Z,81.68
2019-03-17T08:56:36.539Z,81.68
2019-03-17T08:57:36.461Z,81.68
2019-03-17T08:58:36.415Z,81.68
2019-03-17T08:59:36.416Z,81.68
2019-03-17T09:00:36.517Z,81.68
2019-03-17T09:01:36.509Z,81.68
2019-03-17T09:02:36.530Z,81.68
2019-03-17T09:03:36.464Z,81.68
2019-03-17T09:04:36.530Z,81.68
2019-03-17T09:05:36.533Z,81.68
2019-03-17T09:06:36.560Z,81.68
2019-03-17T09:07:36.547Z,81.68
2019-03-17T09:08:36.612Z,81.68
2019-03-17T09:09:36.619Z,81.68
2019-03-17T09:10:36.554Z,81.68
2019-03-17T09:11:36.504Z,81.68
2019-03-17T09:12:36.628Z,81.68
2019-03-17T09:13:36.714Z,81.68
2019-03-17T09:14:36.553Z,81.68
2019-03-17T09:15:36.554Z,81.68
2019-03-17T09:16:36.611Z,81.68
2019-03-17T09:17:36.524Z,81.68
2019-03-17T09:18:36.611Z,81.68
2019-03-17T09:19:36.518Z,81.68
2019-03-17T09:20:36.609Z,81.68
2019-03-17T09:21:36.607Z,81.68
2019-03-17T09:22:36.606Z,81.68
2019-03-17T09:23:36.616Z,81.68
2019-03-17T09:24:36.590Z,81.68
2019-03-17T09:25:36.610Z,81.68
2019-03-17T09:26:36.618Z,81.68
2019-03-17T09:27:36.625Z,81.68
2019-03-17T09:28:36.563Z,81.68
2019-03-17T09:29:36.630Z,81.68
2019-03-17T09:30:36.574Z,81.68
2019-03-17T09:31:36.536Z,81.68
2019-03-17T09:32:36.638Z,81.68
2019-03-17T09:33:36.550Z,81.68
2019-03-17T09:34:36.559Z,81.68
2019-03-17T09:35:36.614Z,81.68
2019-03-17T09:36:36.574Z,81.68
2019-03-17T09:37:36.513Z,81.68
2019-03-17T09:38:46.855Z,81.68
2019-03-17T09:39:36.515Z,81.68
2019-03-17T09:40:36.562Z,81.68
2019-03-17T09:41:36.456Z,81.68
2019-03-17T09:42:36.561Z,81.68
2019-03-17T09:43:36.562Z,81.68
2019-03-17T09:44:36.572Z,81.68
2019-03-17T09:45:36.543Z,81.68
2019-03-17T09:46:36.581Z,81.68
2019-03-17T09:47:36.648Z,81.68
2019-03-17T09:48:36.641Z,81.68
2019-03-17T09:49:36.700Z,81.68
2019-03-17T09:50:36.730Z,81.68
2019-03-17T09:51:36.577Z,81.68
2019-03-17T09:52:36.646Z,81.68
2019-03-17T09:53:36.585Z,81.68
2019-03-17T09:54:36.649Z,81.68
2019-03-17T09:55:36.654Z,81.68
2019-03-17T09:56:36.617Z,81.68
2019-03-17T09:57:36.585Z,81.68
2019-03-17T09:58:36.649Z,81.68
2019-03-17T09:59:36.648Z,81.68
2019-03-17T10:00:36.664Z,81.68
2019-03-17T10:01:36.660Z,81.68
2019-03-17T10:02:36.588Z,81.68
2019-03-17T10:03:36.656Z,81.68
2019-03-17T10:04:36.654Z,81.68
2019-03-17T10:05:36.589Z,81.68
2019-03-17T10:06:36.666Z,81.68
2019-03-17T10:07:36.588Z,81.68
2019-03-17T10:08:36.594Z,81.68
2019-03-17T10:09:36.675Z,81.68
2019-03-17T10:10:36.655Z,81.68
2019-03-17T10:11:36.668Z,81.68
2019-03-17T10:12:36.670Z,81.68
2019-03-17T10:13:36.674Z,81.68
2019-03-17T10:14:36.600Z,81.68
2019-03-17T10:15:36.666Z,81.68
2019-03-17T10:16:36.581Z,81.68
2019-03-17T10:17:36.634Z,81.68
2019-03-17T10:18:36.571Z,81.68
2019-03-17T10:19:36.536Z,81.68
2019-03-17T10:20:36.657Z,81.68
2019-03-17T10:21:36.575Z,81.68
2019-03-17T10:22:36.552Z,81.68
2019-03-17T10:23:36.541Z,81.68
2019-03-17T10:24:36.587Z,81.68
2019-03-17T10:25:36.659Z,81.68
2019-03-17T10:26:36.609Z,81.68
2019-03-17T10:27:36.678Z,81.68
2019-03-17T10:28:36.685Z,81.68
2019-03-17T10:29:36.675Z,81.68
2019-03-17T10:30:36.672Z,81.68
2019-03-17T10:31:36.673Z,81.68
2019-03-17T10:32:36.614Z,81.68
2019-03-17T10:33:36.686Z,81.68
2019-03-17T10:34:36.675Z,81.68
2019-03-17T10:35:36.617Z,81.68
2019-03-17T10:36:36.672Z,81.68
2019-03-17T10:37:36.614Z,81.68
2019-03-17T10:38:36.624Z,81.68
2019-03-17T10:39:36.686Z,81.68
2019-03-17T10:40:36.613Z,81.68
2019-03-17T10:41:36.583Z,89.24
2019-03-17T10:42:36.683Z,88.76
2019-03-17T10:43:36.685Z,89.03
2019-03-17T10:44:36.693Z,88.31
2019-03-17T10:45:36.617Z,88.62
2019-03-17T10:46:36.631Z,88.23
2019-03-17T10:47:36.676Z,86.15
2019-03-17T10:48:36.588Z,85.93
2019-03-17T10:49:36.688Z,86.65
2019-03-17T10:50:48.689Z,84.12
2019-03-17T10:51:36.615Z,85.08
2019-03-17T10:52:36.677Z,84.52
2019-03-17T10:53:36.599Z,85.13
2019-03-17T10:54:36.686Z,85.50
2019-03-17T10:55:36.699Z,85.05
2019-03-17T10:56:36.627Z,84.71
2019-03-17T10:57:36.633Z,85.32
2019-03-17T10:58:36.695Z,84.89
2019-03-17T10:59:36.630Z,85.53
2019-03-17T11:00:36.597Z,84.28
2019-03-17T11:01:36.697Z,84.66
2019-03-17T11:02:36.699Z,84.89
2019-03-17T11:03:36.638Z,84.20
2019-03-17T11:04:36.638Z,83.99
2019-03-17T11:05:36.693Z,83.49
2019-03-17T11:06:36.690Z,82.90
2019-03-17T11:07:36.681Z,82.27
2019-03-17T11:08:36.631Z,83.54
2019-03-17T11:09:36.660Z,83.20
2019-03-17T11:10:36.627Z,82.43
2019-03-17T11:11:36.581Z,82.24
2019-03-17T11:12:36.688Z,82.59
2019-03-17T11:13:36.576Z,82.37
2019-03-17T11:14:36.595Z,83.22
2019-03-17T11:15:36.685Z,82.93
2019-03-17T11:16:36.711Z,83.44
2019-03-17T11:17:36.717Z,80.84
2019-03-17T11:18:36.711Z,79.63
2019-03-17T11:19:36.712Z,79.68
2019-03-17T11:20:36.715Z,79.15
2019-03-17T11:21:36.639Z,78.91
2019-03-17T11:22:36.737Z,78.33
2019-03-17T11:23:36.647Z,78.75
2019-03-17T11:24:36.711Z,79.47
2019-03-17T11:25:36.719Z,79.89
2019-03-17T11:26:36.631Z,79.57
2019-03-17T11:27:36.632Z,79.97
2019-03-17T11:28:36.707Z,79.41
2019-03-17T11:29:36.593Z,78.73
2019-03-17T11:30:36.622Z,78.25
2019-03-17T11:31:36.710Z,77.75
2019-03-17T11:32:36.636Z,78.89
2019-03-17T11:33:36.675Z,79.60
2019-03-17T11:34:36.667Z,78.78
2019-03-17T11:35:36.663Z,78.17
2019-03-17T11:36:36.669Z,79.31
2019-03-17T11:37:36.656Z,79.36
2019-03-17T11:38:36.647Z,77.78
2019-03-17T11:39:37.986Z,78.59
2019-03-17T11:40:36.629Z,78.73
2019-03-17T11:41:36.627Z,79.15
2019-03-17T11:42:36.618Z,78.52
2019-03-17T11:43:36.657Z,78.54
2019-03-17T11:44:36.595Z,78.81
2019-03-17T11:45:36.645Z,78.47
2019-03-17T11:46:36.663Z,77.78
2019-03-17T11:47:36.731Z,79.49
2019-03-17T11:48:36.658Z,79.52
2019-03-17T11:49:36.730Z,78.62
2019-03-17T11:50:36.677Z,79.02
2019-03-17T11:51:36.661Z,78.94
2019-03-17T11:52:36.823Z,78.97
2019-03-17T11:53:36.633Z,78.62
2019-03-17T11:54:36.733Z,78.31
2019-03-17T11:55:36.684Z,77.97
2019-03-17T11:56:36.732Z,77.59
2019-03-17T11:57:36.593Z,77.02
2019-03-17T11:58:36.701Z,77.73
2019-03-17T11:59:36.701Z,77.41
2019-03-17T12:00:36.697Z,77.54
2019-03-17T12:01:36.686Z,78.62
2019-03-17T12:02:36.632Z,78.07
2019-03-17T12:03:36.639Z,78.12
2019-03-17T12:04:36.611Z,77.78
2019-03-17T12:05:36.682Z,77.83
2019-03-17T12:06:36.669Z,77.54
2019-03-17T12:07:36.749Z,77.12
2019-03-17T12:08:36.760Z,77.54
2019-03-17T12:09:49.373Z,78.81
2019-03-17T12:10:36.678Z,78.52
2019-03-17T12:11:36.744Z,77.51
2019-03-17T12:12:36.752Z,78.23
2019-03-17T12:13:36.746Z,79.23
2019-03-17T12:14:36.745Z,76.49
2019-03-17T12:15:36.751Z,76.23
2019-03-17T12:16:36.701Z,76.28
2019-03-17T12:17:36.654Z,77.17
2019-03-17T12:18:36.740Z,75.29
2019-03-17T12:19:36.648Z,76.86
2019-03-17T12:20:36.634Z,77.15
2019-03-17T12:21:36.739Z,76.83
2019-03-17T12:22:36.690Z,76.52
2019-03-17T12:23:36.745Z,76.28
2019-03-17T12:24:36.622Z,76.41
2019-03-17T12:25:36.716Z,76.02
2019-03-17T12:26:36.751Z,76.97
2019-03-17T12:27:36.693Z,77.07
2019-03-17T12:28:36.759Z,76.70
2019-03-17T12:29:36.760Z,77.15
2019-03-17T12:30:36.690Z,76.39
2019-03-17T12:31:36.763Z,76.67
2019-03-17T12:32:36.770Z,78.23
2019-03-17T12:33:36.762Z,78.52
2019-03-17T12:34:36.695Z,79.17
2019-03-17T12:35:36.763Z,80.39
2019-03-17T12:36:36.698Z,80.73
2019-03-17T12:37:36.696Z,81.74
2019-03-17T12:38:36.777Z,83.78
2019-03-17T12:39:36.701Z,86.41
2019-03-17T12:40:36.767Z,87.61
2019-03-17T12:41:38.329Z,88.28
2019-03-17T12:42:36.766Z,88.41
2019-03-17T12:43:36.766Z,88.97
2019-03-17T12:44:36.765Z,89.00
2019-03-17T12:45:36.701Z,88.97
2019-03-17T12:46:36.768Z,88.60
2019-03-17T12:47:37.531Z,89.03
2019-03-17T12:48:36.717Z,89.16
2019-03-17T12:49:36.710Z,88.81
2019-03-17T12:50:36.785Z,88.71
2019-03-17T12:51:36.705Z,88.28
2019-03-17T12:52:36.707Z,87.85